Time;durP1;ratioP1;P1;durP2;ratioP2;P2;SDS_P1;SDS_P2;PMS_P1;PMS_P2;Temp;Humidity;BMP_temperature;BMP_pressure;BME280_temperature;BME280_humidity;BME280_pressure;Samples;Min_cycle;Max_cycle;Signal;HPM_P1;HPM_P2
2021/09/07 00:00:16;;;;;;;8.75;6.10;;;;;;;25.25;34.67;101985.13;5012398;28;20073;-83
2021/09/07 00:02:43;;;;;;;8.13;5.50;;;;;;;25.23;34.37;101988.06;5010889;28;20068;-84
2021/09/07 00:05:11;;;;;;;8.20;5.63;;;;;;;25.21;34.07;101990.16;5012289;28;20632;-84
2021/09/07 00:07:38;;;;;;;8.75;6.10;;;;;;;25.19;34.44;101986.69;4990934;28;20724;-83
2021/09/07 00:10:06;;;;;;;9.55;5.90;;;;;;;25.19;34.70;101985.81;5011041;28;20131;-84
2021/09/07 00:12:33;;;;;;;10.07;6.28;;;;;;;25.16;34.42;101992.59;5003547;28;20080;-83
2021/09/07 00:15:00;;;;;;;8.77;5.85;;;;;;;25.13;34.88;101981.78;5012325;28;20050;-83
2021/09/07 00:17:27;;;;;;;10.73;6.55;;;;;;;25.10;35.02;101984.94;5009936;28;20069;-83
2021/09/07 00:19:54;;;;;;;10.43;6.10;;;;;;;25.08;34.68;101991.69;5011022;28;20138;-84
2021/09/07 00:22:22;;;;;;;10.18;6.03;;;;;;;25.03;35.32;101986.66;5007705;28;20144;-84
2021/09/07 00:24:51;;;;;;;8.25;5.90;;;;;;;25.00;34.96;101984.22;5010230;28;20104;-84
2021/09/07 00:27:20;;;;;;;10.15;6.47;;;;;;;24.97;35.41;101978.97;5020445;28;20068;-83
2021/09/07 00:29:48;;;;;;;8.63;5.80;;;;;;;24.94;35.20;101982.13;5023521;28;20503;-82
2021/09/07 00:32:17;;;;;;;9.13;5.75;;;;;;;24.91;34.81;101976.88;5010313;28;20398;-82
2021/09/07 00:34:45;;;;;;;8.80;6.15;;;;;;;24.89;35.41;101977.00;5005504;28;20082;-81
2021/09/07 00:37:14;;;;;;;8.75;6.00;;;;;;;24.87;35.62;101981.84;5010190;28;20390;-82
2021/09/07 00:39:42;;;;;;;9.40;6.25;;;;;;;24.84;36.00;101970.22;5003648;28;20045;-82
2021/09/07 00:42:08;;;;;;;8.75;6.00;;;;;;;24.81;36.07;101978.88;5010306;28;20144;-82
2021/09/07 00:44:35;;;;;;;9.43;6.53;;;;;;;24.77;35.32;101983.94;5009315;28;20130;-82
2021/09/07 00:47:06;;;;;;;11.20;6.65;;;;;;;24.76;35.99;101978.53;5010817;28;20081;-82
2021/09/07 00:49:34;;;;;;;10.15;6.57;;;;;;;24.72;35.30;101977.13;5011523;28;20505;-80
2021/09/07 00:52:02;;;;;;;9.75;6.05;;;;;;;24.69;35.88;101981.13;5006706;28;20054;-82
2021/09/07 00:54:38;;;;;;;11.55;6.85;;;;;;;24.67;36.50;101980.41;5002013;28;20116;-82
2021/09/07 00:57:08;;;;;;;11.45;6.93;;;;;;;24.62;36.15;101980.88;5000852;28;20609;-82
2021/09/07 00:59:37;;;;;;;10.70;6.40;;;;;;;24.60;35.98;101984.91;5006376;28;20049;-82
2021/09/07 01:02:05;;;;;;;10.25;6.85;;;;;;;24.56;36.40;101987.13;5023060;28;20128;-82
2021/09/07 01:04:35;;;;;;;9.70;6.18;;;;;;;24.52;36.39;101977.41;5010473;28;20069;-82
2021/09/07 01:07:03;;;;;;;10.05;6.90;;;;;;;24.48;36.20;101978.75;5007473;28;20038;-82
2021/09/07 01:09:30;;;;;;;10.60;5.93;;;;;;;24.45;36.54;101969.91;5008948;28;20493;-82
2021/09/07 01:11:57;;;;;;;9.77;5.60;;;;;;;24.42;36.30;101971.09;5011883;28;20159;-82
2021/09/07 01:14:32;;;;;;;8.88;6.40;;;;;;;24.43;35.89;101964.50;5013098;28;20058;-82
2021/09/07 01:17:00;;;;;;;9.75;6.88;;;;;;;24.38;36.14;101966.88;4989987;28;20046;-82
2021/09/07 01:19:28;;;;;;;10.88;6.85;;;;;;;24.38;36.39;101972.44;5004589;28;20090;-82
2021/09/07 01:21:54;;;;;;;9.48;6.05;;;;;;;24.35;36.40;101963.59;5006548;28;20054;-82
2021/09/07 01:24:26;;;;;;;9.50;5.85;;;;;;;24.37;36.14;101965.19;5007635;28;20074;-82
2021/09/07 01:26:53;;;;;;;11.90;6.75;;;;;;;24.31;36.48;101956.63;5001512;28;20058;-82
2021/09/07 01:29:19;;;;;;;8.55;6.05;;;;;;;24.31;35.97;101959.38;5015210;28;20077;-82
2021/09/07 01:31:50;;;;;;;8.38;5.85;;;;;;;24.30;35.99;101958.53;5004847;28;20054;-82
2021/09/07 01:34:22;;;;;;;10.27;6.22;;;;;;;24.34;36.15;101953.53;5008833;28;20077;-82
2021/09/07 01:36:49;;;;;;;10.02;6.15;;;;;;;24.30;36.29;101943.78;5007259;28;20088;-82
2021/09/07 01:39:16;;;;;;;9.77;6.28;;;;;;;24.29;36.45;101942.94;5020916;28;20086;-82
2021/09/07 01:41:43;;;;;;;10.30;6.88;;;;;;;24.27;36.97;101947.78;5009434;28;20139;-82
2021/09/07 01:44:09;;;;;;;10.73;6.60;;;;;;;24.24;36.85;101939.75;5010889;28;20141;-82
2021/09/07 01:46:36;;;;;;;10.15;6.45;;;;;;;24.21;37.03;101948.44;4995971;28;20074;-82
2021/09/07 01:49:05;;;;;;;9.50;6.20;;;;;;;24.19;36.58;101947.69;5004071;28;20062;-82
2021/09/07 01:51:32;;;;;;;8.65;5.93;;;;;;;24.15;36.75;101949.03;5030479;28;20131;-82
2021/09/07 01:53:58;;;;;;;9.20;5.93;;;;;;;24.13;36.72;101957.53;5014782;28;20133;-82
2021/09/07 01:56:25;;;;;;;10.75;7.13;;;;;;;24.10;36.84;101957.88;5013633;28;20046;-82
2021/09/07 01:58:51;;;;;;;10.45;6.80;;;;;;;24.08;36.46;101951.59;5011011;28;20172;-82
2021/09/07 02:01:18;;;;;;;10.20;6.30;;;;;;;24.08;36.72;101953.50;5010784;28;20138;-82
2021/09/07 02:03:45;;;;;;;10.63;6.45;;;;;;;24.06;36.41;101941.69;5013336;28;20050;-82
2021/09/07 02:06:12;;;;;;;10.13;6.63;;;;;;;24.06;36.75;101938.91;5028145;28;20054;-82
2021/09/07 02:08:38;;;;;;;8.90;5.85;;;;;;;24.07;36.86;101937.88;5010482;28;20108;-81
2021/09/07 02:11:05;;;;;;;10.23;6.20;;;;;;;24.05;36.76;101938.03;5020252;28;21354;-82
2021/09/07 02:13:31;;;;;;;8.95;5.88;;;;;;;24.05;37.22;101938.03;5010964;28;20058;-81
2021/09/07 02:15:58;;;;;;;9.27;6.13;;;;;;;24.06;36.73;101942.56;5015676;28;20509;-81
2021/09/07 02:18:24;;;;;;;7.57;5.43;;;;;;;24.06;37.07;101939.78;5032597;28;20061;-81
2021/09/07 02:20:51;;;;;;;10.27;6.68;;;;;;;24.04;36.84;101941.88;5013590;28;20042;-82
2021/09/07 02:23:17;;;;;;;9.30;6.15;;;;;;;24.04;36.89;101936.34;5026213;28;20493;-82
2021/09/07 02:25:44;;;;;;;9.77;5.97;;;;;;;24.02;36.89;101931.97;5003926;28;20066;-81
2021/09/07 02:28:12;;;;;;;9.38;6.20;;;;;;;24.00;37.19;101942.34;5015759;28;20046;-82
2021/09/07 02:30:38;;;;;;;8.85;6.07;;;;;;;23.96;36.86;101941.84;5007770;28;20133;-81
2021/09/07 02:33:05;;;;;;;9.25;6.00;;;;;;;23.94;36.66;101938.34;5020637;28;20139;-81
2021/09/07 02:35:33;;;;;;;8.25;6.03;;;;;;;23.93;36.91;101944.03;5005929;28;20081;-81
2021/09/07 02:38:02;;;;;;;9.23;5.97;;;;;;;23.93;36.50;101947.69;5013754;28;20505;-81
2021/09/07 02:40:28;;;;;;;8.90;6.18;;;;;;;23.92;36.63;101942.31;5010513;28;20454;-81
2021/09/07 02:42:55;;;;;;;9.02;6.00;;;;;;;23.92;37.00;101948.72;5018013;28;20136;-81
2021/09/07 02:45:21;;;;;;;10.15;6.03;;;;;;;23.89;36.26;101940.72;5013723;28;20180;-81
2021/09/07 02:47:48;;;;;;;8.48;5.93;;;;;;;23.89;36.93;101941.59;5011403;28;20089;-81
2021/09/07 02:50:16;;;;;;;9.88;5.57;;;;;;;23.90;37.14;101940.56;5011950;28;20080;-81
2021/09/07 02:52:43;;;;;;;9.05;5.40;;;;;;;23.90;36.50;101939.69;5015136;28;20469;-81
2021/09/07 02:55:10;;;;;;;8.50;6.03;;;;;;;23.90;37.12;101935.00;5010598;28;20049;-81
2021/09/07 02:57:37;;;;;;;8.73;5.95;;;;;;;23.89;36.91;101938.81;5019352;28;20096;-81
2021/09/07 03:00:05;;;;;;;9.43;5.90;;;;;;;23.90;37.11;101935.00;5015119;28;20073;-81
2021/09/07 03:02:32;;;;;;;9.35;6.18;;;;;;;23.87;36.84;101929.81;5011748;28;20050;-81
2021/09/07 03:04:59;;;;;;;8.38;5.72;;;;;;;23.87;37.05;101928.94;5025529;28;20060;-81
2021/09/07 03:07:25;;;;;;;7.93;5.50;;;;;;;23.86;37.33;101930.84;5007135;28;20125;-81
2021/09/07 03:09:52;;;;;;;9.07;5.85;;;;;;;23.85;36.82;101926.31;5012510;28;20603;-81
2021/09/07 03:12:19;;;;;;;8.95;5.63;;;;;;;23.85;36.91;101928.22;5025487;28;20053;-81
2021/09/07 03:14:45;;;;;;;8.30;6.00;;;;;;;23.84;37.03;101935.66;4995598;28;20096;-81
2021/09/07 03:17:12;;;;;;;11.18;6.63;;;;;;;23.84;37.31;101929.25;5009546;28;20073;-81
2021/09/07 03:19:40;;;;;;;9.50;6.82;;;;;;;23.81;37.88;101929.56;5024897;28;20072;-81
2021/09/07 03:22:06;;;;;;;10.23;5.97;;;;;;;23.79;37.44;101940.84;5020896;28;20046;-81
2021/09/07 03:24:33;;;;;;;8.80;5.63;;;;;;;23.76;37.36;101932.84;5026986;28;20540;-81
2021/09/07 03:27:00;;;;;;;9.25;6.20;;;;;;;23.74;37.62;101936.78;5012401;28;20054;-81
2021/09/07 03:29:27;;;;;;;11.00;6.55;;;;;;;23.72;37.67;101928.63;5018902;28;20053;-81
2021/09/07 03:31:53;;;;;;;8.38;5.55;;;;;;;23.70;37.69;101929.84;5013953;28;20133;-81
2021/09/07 03:34:20;;;;;;;8.65;5.57;;;;;;;23.67;37.46;101931.03;5012872;28;20103;-81
2021/09/07 03:36:46;;;;;;;10.38;6.72;;;;;;;23.68;38.06;101923.59;5013332;28;20046;-81
2021/09/07 03:39:13;;;;;;;8.80;5.95;;;;;;;23.67;37.38;101932.94;5008913;28;20057;-80
2021/09/07 03:41:39;;;;;;;9.15;6.45;;;;;;;23.65;37.90;101930.31;5019310;28;20716;-81
2021/09/07 03:44:06;;;;;;;9.43;6.43;;;;;;;23.65;37.15;101932.22;5013224;28;20612;-81
2021/09/07 03:46:33;;;;;;;9.98;6.22;;;;;;;23.62;37.60;101933.44;5031000;28;20053;-81
2021/09/07 03:49:00;;;;;;;10.00;6.72;;;;;;;23.62;37.94;101929.78;5007923;28;20128;-81
2021/09/07 03:51:27;;;;;;;9.15;5.80;;;;;;;23.59;38.07;101928.19;5017572;28;20073;-81
2021/09/07 03:53:54;;;;;;;9.88;6.43;;;;;;;23.58;38.27;101928.34;5013366;28;20054;-81
2021/09/07 03:56:21;;;;;;;8.95;5.68;;;;;;;23.56;37.63;101935.94;5024906;28;20057;-81
2021/09/07 03:58:47;;;;;;;9.75;6.30;;;;;;;23.55;38.33;101937.88;5016904;28;20136;-81
2021/09/07 04:01:14;;;;;;;8.57;5.70;;;;;;;23.55;38.06;101935.13;5027646;28;20096;-81
2021/09/07 04:03:41;;;;;;;9.35;6.30;;;;;;;23.54;37.81;101951.91;5011382;28;20134;-81
2021/09/07 04:06:08;;;;;;;9.70;6.03;;;;;;;23.54;38.17;101950.00;5022081;28;20077;-80
2021/09/07 04:08:35;;;;;;;10.00;6.05;;;;;;;23.54;38.23;101950.00;5010530;28;20104;-81
2021/09/07 04:11:01;;;;;;;8.68;6.22;;;;;;;23.52;38.30;101950.16;5012796;28;20088;-81
2021/09/07 04:13:28;;;;;;;8.73;6.05;;;;;;;23.54;37.73;101943.59;5011554;28;20129;-80
2021/09/07 04:15:55;;;;;;;9.52;6.28;;;;;;;23.54;37.88;101938.91;5021927;28;20582;-80
2021/09/07 04:18:21;;;;;;;10.35;6.32;;;;;;;23.53;37.99;101934.41;5021819;28;20059;-80
2021/09/07 04:20:48;;;;;;;9.68;6.60;;;;;;;23.53;38.19;101937.16;5011661;28;20053;-80
2021/09/07 04:23:14;;;;;;;8.98;5.95;;;;;;;23.54;38.22;101938.03;5009443;28;20129;-81
2021/09/07 04:25:42;;;;;;;10.82;6.28;;;;;;;23.52;38.60;101924.34;5002728;28;20502;-81
2021/09/07 04:28:09;;;;;;;7.90;5.45;;;;;;;23.52;38.00;101938.19;5012405;28;20125;-80
2021/09/07 04:30:35;;;;;;;8.32;5.75;;;;;;;23.52;38.19;101929.88;5031291;28;20551;-80
2021/09/07 04:33:02;;;;;;;8.82;6.03;;;;;;;23.52;38.00;101936.28;5017232;28;20797;-80
2021/09/07 04:35:29;;;;;;;10.57;6.45;;;;;;;23.53;38.63;101931.63;5013855;28;20533;-80
2021/09/07 04:37:55;;;;;;;8.70;6.20;;;;;;;23.53;38.50;101937.16;5020979;28;20045;-80
2021/09/07 04:40:22;;;;;;;9.52;6.05;;;;;;;23.52;38.26;101938.19;5018098;28;20123;-81
2021/09/07 04:42:48;;;;;;;8.98;6.40;;;;;;;23.51;38.60;101937.31;5011930;28;20137;-82
2021/09/07 04:45:15;;;;;;;8.38;6.07;;;;;;;23.51;38.41;101936.44;5011288;28;20547;-82
2021/09/07 04:47:42;;;;;;;8.68;6.07;;;;;;;23.48;38.04;101940.41;5012840;28;20046;-81
2021/09/07 04:50:09;;;;;;;9.18;6.53;;;;;;;23.49;38.69;101944.03;5016107;28;20053;-81
2021/09/07 04:52:35;;;;;;;10.23;6.68;;;;;;;23.46;38.81;101945.22;5010055;28;20088;-80
2021/09/07 04:55:03;;;;;;;10.90;6.90;;;;;;;23.44;38.54;101938.09;5017590;28;20088;-80
2021/09/07 04:57:30;;;;;;;11.93;6.90;;;;;;;23.42;39.10;101938.25;5011501;28;20042;-81
2021/09/07 04:59:56;;;;;;;9.30;6.68;;;;;;;23.39;38.80;101935.78;5009083;28;20495;-79
2021/09/07 05:02:23;;;;;;;11.25;7.00;;;;;;;23.38;38.64;101938.75;5009781;28;20052;-80
2021/09/07 05:04:50;;;;;;;8.13;5.90;;;;;;;23.38;38.80;101935.97;5016055;28;20100;-80
2021/09/07 05:07:16;;;;;;;10.88;6.85;;;;;;;23.38;39.11;101941.50;5006664;28;20108;-81
2021/09/07 05:09:43;;;;;;;10.23;7.15;;;;;;;23.39;39.02;101946.03;5015208;28;20052;-80
2021/09/07 05:12:10;;;;;;;10.40;6.70;;;;;;;23.38;38.79;101942.38;5023834;28;20057;-80
2021/09/07 05:14:38;;;;;;;9.30;5.85;;;;;;;23.39;38.99;101944.09;5009852;28;20069;-81
2021/09/07 05:17:05;;;;;;;8.75;6.38;;;;;;;23.40;39.20;101936.66;5008894;28;20084;-78
2021/09/07 05:19:32;;;;;;;9.38;6.72;;;;;;;23.41;38.90;101942.03;5009316;28;20505;-77
2021/09/07 05:21:58;;;;;;;9.20;6.60;;;;;;;23.42;38.95;101942.91;5012774;28;20077;-77
2021/09/07 05:24:25;;;;;;;9.32;6.68;;;;;;;23.44;38.90;101943.63;5007401;28;20421;-76
2021/09/07 05:26:51;;;;;;;10.30;7.10;;;;;;;23.44;39.17;101943.63;5019896;28;20069;-78
2021/09/07 05:29:18;;;;;;;10.15;6.97;;;;;;;23.44;39.32;101955.59;5012962;28;20125;-78
2021/09/07 05:31:45;;;;;;;8.98;6.75;;;;;;;23.44;39.32;101951.94;5011946;28;20046;-79
2021/09/07 05:34:11;;;;;;;11.90;6.90;;;;;;;23.42;39.69;101952.09;5002528;28;20050;-79
2021/09/07 05:36:38;;;;;;;10.82;7.07;;;;;;;23.40;39.15;101956.06;5008161;28;20077;-77
2021/09/07 05:39:04;;;;;;;9.35;6.63;;;;;;;23.38;39.60;101959.00;5007346;28;20137;-78
2021/09/07 05:41:31;;;;;;;9.35;6.57;;;;;;;23.37;39.20;101962.81;5015032;28;20675;-75
2021/09/07 05:43:58;;;;;;;9.25;6.45;;;;;;;23.35;39.06;101948.22;5008908;28;20108;-77
2021/09/07 05:46:24;;;;;;;9.73;5.82;;;;;;;23.37;39.46;101945.31;5010856;28;20056;-80
2021/09/07 05:48:51;;;;;;;11.35;7.03;;;;;;;23.37;38.99;101948.06;5003492;28;20711;-79
2021/09/07 05:51:18;;;;;;;10.23;6.55;;;;;;;23.38;39.69;101950.69;5012172;28;20052;-78
2021/09/07 05:53:44;;;;;;;10.32;6.50;;;;;;;23.41;39.46;101946.72;5015206;28;20050;-79
2021/09/07 05:56:11;;;;;;;10.40;6.57;;;;;;;23.42;39.21;101954.88;5010595;28;20049;-80
2021/09/07 05:58:38;;;;;;;10.48;6.93;;;;;;;23.46;39.46;101958.22;5011429;28;20053;-81
2021/09/07 06:01:09;;;;;;;9.90;6.75;;;;;;;23.46;39.13;101955.44;5018643;28;20054;-77
2021/09/07 06:03:36;;;;;;;11.70;7.70;;;;;;;23.48;39.65;101961.66;5005508;28;20640;-80
2021/09/07 06:06:03;;;;;;;11.07;7.32;;;;;;;23.48;39.75;101970.91;5013162;28;20108;-83
2021/09/07 06:08:29;;;;;;;10.57;7.47;;;;;;;23.49;39.11;101964.31;5012698;28;20069;-80
2021/09/07 06:10:56;;;;;;;9.63;6.75;;;;;;;23.50;39.85;101976.28;5013542;28;20112;-81
2021/09/07 06:13:23;;;;;;;13.38;7.45;;;;;;;23.50;39.37;101963.28;5013161;28;20061;-81
2021/09/07 06:15:49;;;;;;;11.05;7.35;;;;;;;23.51;39.53;101966.94;5019310;28;20680;-81
2021/09/07 06:18:17;;;;;;;11.40;7.32;;;;;;;23.53;39.75;101967.66;5016760;28;20137;-81
2021/09/07 06:20:43;;;;;;;11.13;7.28;;;;;;;23.54;39.74;101968.53;5007331;28;20684;-77
2021/09/07 06:23:10;;;;;;;9.80;6.90;;;;;;;23.55;39.68;101971.16;5006142;28;20153;-77
2021/09/07 06:25:37;;;;;;;12.07;7.75;;;;;;;23.58;39.75;101970.81;5020360;28;20133;-83
2021/09/07 06:28:03;;;;;;;11.60;8.32;;;;;;;23.60;39.87;101970.66;5021000;28;20165;-83
2021/09/07 06:30:30;;;;;;;12.57;8.70;;;;;;;23.62;39.96;101979.69;5024186;28;20092;-77
2021/09/07 06:32:57;;;;;;;15.95;8.38;;;;;;;23.62;39.95;101969.47;5013922;28;20077;-77
2021/09/07 06:35:24;;;;;;;11.98;8.40;;;;;;;23.63;39.49;101968.44;5009485;28;20057;-77
2021/09/07 06:37:50;;;;;;;11.88;8.25;;;;;;;23.65;39.95;101971.03;5010705;28;20555;-76
2021/09/07 06:40:17;;;;;;;11.77;8.25;;;;;;;23.66;40.00;101970.88;5008486;28;20073;-75
2021/09/07 06:42:44;;;;;;;12.65;8.00;;;;;;;23.67;39.80;101967.09;5019107;28;20061;-77
2021/09/07 06:45:11;;;;;;;12.07;8.15;;;;;;;23.70;39.50;101971.44;5012817;28;20100;-76
2021/09/07 06:47:38;;;;;;;12.80;8.68;;;;;;;23.70;39.87;101972.31;5007919;28;20097;-78
2021/09/07 06:50:05;;;;;;;12.52;8.43;;;;;;;23.72;39.66;101974.94;5007843;28;20137;-74
2021/09/07 06:52:32;;;;;;;13.48;8.30;;;;;;;23.74;39.88;101981.16;5015304;28;20524;-75
2021/09/07 06:54:59;;;;;;;15.57;8.90;;;;;;;23.75;40.08;101982.91;5010489;28;20080;-75
2021/09/07 06:57:26;;;;;;;13.30;8.93;;;;;;;23.77;39.84;101978.97;5000956;28;20073;-75
2021/09/07 06:59:54;;;;;;;14.63;9.13;;;;;;;23.80;39.85;101986.09;5009699;28;20054;-76
2021/09/07 07:02:21;;;;;;;13.95;8.95;;;;;;;23.80;40.33;101984.16;5011887;28;20072;-75
2021/09/07 07:04:48;;;;;;;14.15;9.15;;;;;;;23.82;39.95;101986.78;5016024;28;20057;-77
2021/09/07 07:07:15;;;;;;;11.90;7.80;;;;;;;23.84;40.04;101987.50;5016628;28;20053;-77
2021/09/07 07:09:42;;;;;;;15.07;9.00;;;;;;;23.86;40.60;101991.00;5019793;28;20053;-78
2021/09/07 07:12:08;;;;;;;13.93;8.95;;;;;;;23.89;40.27;101988.75;5026942;28;20069;-76
2021/09/07 07:14:35;;;;;;;13.25;8.50;;;;;;;23.92;40.18;101997.78;5009054;28;20053;-75
2021/09/07 07:17:02;;;;;;;13.00;8.80;;;;;;;23.96;40.10;101996.44;5014286;28;20045;-77
2021/09/07 07:19:29;;;;;;;15.13;9.18;;;;;;;23.98;40.34;101997.13;5013067;28;20114;-79
2021/09/07 07:21:55;;;;;;;12.30;9.07;;;;;;;24.00;40.16;102003.38;5012446;28;20042;-76
2021/09/07 07:24:22;;;;;;;15.05;9.45;;;;;;;24.04;40.12;102010.38;5014229;28;20104;-76
2021/09/07 07:27:00;;;;;;;14.00;8.98;;;;;;;24.08;40.18;102004.31;5007595;28;20063;-75
2021/09/07 07:29:26;;;;;;;12.98;8.20;;;;;;;24.11;40.01;102005.91;5023716;28;20119;-78
2021/09/07 07:31:54;;;;;;;13.07;8.75;;;;;;;24.13;39.97;102004.69;5014982;28;20053;-78
2021/09/07 07:34:20;;;;;;;14.90;9.70;;;;;;;24.16;39.91;102007.16;5022423;28;20079;-78
2021/09/07 07:36:48;;;;;;;14.45;9.32;;;;;;;24.21;39.79;102017.81;5019947;28;20100;-77
2021/09/07 07:39:15;;;;;;;15.00;9.90;;;;;;;24.25;40.11;102016.44;5040375;28;20547;-77
2021/09/07 07:41:41;;;;;;;14.50;9.82;;;;;;;24.26;39.91;102016.28;5013398;28;20049;-77
2021/09/07 07:44:08;;;;;;;15.35;9.55;;;;;;;24.29;40.22;102009.53;5011192;28;20058;-77
2021/09/07 07:46:35;;;;;;;14.25;9.18;;;;;;;24.33;40.08;102010.06;5012399;28;20118;-77
2021/09/07 07:49:02;;;;;;;13.35;9.15;;;;;;;24.37;39.59;102017.91;5009191;28;20050;-77
2021/09/07 07:51:28;;;;;;;13.70;8.82;;;;;;;24.41;39.55;102018.44;5009486;28;20629;-79
2021/09/07 07:53:55;;;;;;;13.60;9.57;;;;;;;24.44;39.49;102015.34;5010457;28;20057;-76
2021/09/07 07:56:21;;;;;;;15.13;9.68;;;;;;;24.48;39.81;102013.97;5011357;28;20042;-76
2021/09/07 07:58:48;;;;;;;14.43;9.38;;;;;;;24.51;39.94;102014.53;5009302;28;20064;-81
2021/09/07 08:01:15;;;;;;;13.43;8.70;;;;;;;24.54;39.57;102010.56;5010894;28;20511;-80
2021/09/07 08:03:45;;;;;;;13.32;9.27;;;;;;;24.57;39.42;102012.97;5004665;28;20052;-80
2021/09/07 08:06:13;;;;;;;13.85;9.50;;;;;;;24.61;39.69;102014.41;5011860;28;20111;-76
2021/09/07 08:08:40;;;;;;;15.38;9.57;;;;;;;24.65;39.86;102018.56;5011595;28;20069;-79
2021/09/07 08:11:06;;;;;;;16.48;9.50;;;;;;;24.69;39.67;102028.34;5015318;28;20050;-79
2021/09/07 08:13:33;;;;;;;13.02;8.90;;;;;;;24.73;39.73;102026.06;5010350;28;20054;-79
2021/09/07 08:16:00;;;;;;;16.45;10.57;;;;;;;24.76;39.18;102025.75;5015216;28;20125;-77
2021/09/07 08:18:26;;;;;;;14.55;9.65;;;;;;;24.79;39.20;102025.44;5011176;28;20081;-77
2021/09/07 08:20:53;;;;;;;13.05;9.30;;;;;;;24.82;39.32;102022.31;5022069;28;20050;-77
2021/09/07 08:23:20;;;;;;;14.93;9.55;;;;;;;24.86;39.64;102019.03;5009373;28;20570;-77
2021/09/07 08:25:46;;;;;;;14.30;10.05;;;;;;;24.90;39.32;102025.97;5017868;28;20133;-78
2021/09/07 08:28:13;;;;;;;13.77;9.35;;;;;;;24.94;39.75;102026.56;5006580;28;20108;-78
2021/09/07 08:30:40;;;;;;;14.10;9.10;;;;;;;24.99;39.25;102032.47;5010214;28;20519;-77
2021/09/07 08:33:14;;;;;;;12.60;8.85;;;;;;;25.08;39.19;102031.47;5010934;28;20090;-77
2021/09/07 08:35:42;;;;;;;12.80;8.48;;;;;;;25.08;39.41;102034.25;5002952;28;20096;-79
2021/09/07 08:38:10;;;;;;;13.40;9.52;;;;;;;25.13;39.26;102028.16;5012319;28;20060;-77
2021/09/07 08:40:38;;;;;;;14.25;9.35;;;;;;;25.18;39.55;102034.97;5021996;28;20068;-78
2021/09/07 08:43:06;;;;;;;13.43;9.00;;;;;;;25.22;39.44;102029.94;5025223;28;20065;-81
2021/09/07 08:45:33;;;;;;;15.18;9.05;;;;;;;25.25;39.08;102026.84;5018171;28;20103;-79
2021/09/07 08:48:02;;;;;;;12.88;9.35;;;;;;;25.30;39.08;102029.97;5015067;28;20061;-81
2021/09/07 08:50:29;;;;;;;14.77;9.35;;;;;;;25.32;39.05;102033.44;5020400;28;20115;-77
2021/09/07 08:52:58;;;;;;;14.18;9.23;;;;;;;25.36;39.04;102027.41;5025166;28;20085;-78
2021/09/07 08:55:29;;;;;;;12.63;8.45;;;;;;;25.42;39.06;102036.94;5010778;28;20440;-80
2021/09/07 08:57:59;;;;;;;11.48;8.63;;;;;;;25.44;38.98;102025.66;5021086;28;20085;-82
2021/09/07 09:00:48;;;;;;;13.05;8.95;;;;;;;25.51;38.78;102027.59;5004533;28;20128;-82
2021/09/07 09:03:16;;;;;;;13.30;8.90;;;;;;;25.54;39.43;102023.56;5004603;28;20062;-80
2021/09/07 09:05:48;;;;;;;14.40;9.73;;;;;;;25.60;38.69;102025.72;5008280;28;20092;-78
2021/09/07 09:08:17;;;;;;;14.93;9.75;;;;;;;25.64;38.96;102025.19;5010826;28;20108;-80
2021/09/07 09:10:46;;;;;;;14.13;9.50;;;;;;;25.70;38.62;102023.63;5010035;28;20084;-84
2021/09/07 09:13:15;;;;;;;14.20;8.95;;;;;;;25.79;38.85;102022.59;5012432;28;20069;-78
2021/09/07 09:16:02;;;;;;;15.02;9.70;;;;;;;25.84;38.74;102022.94;5007533;28;20599;-80
2021/09/07 09:18:37;;;;;;;14.20;9.02;;;;;;;25.92;38.42;102025.72;5009246;28;20047;-82
2021/09/07 09:21:32;;;;;;;14.23;9.25;;;;;;;25.97;38.75;102026.06;5040660;28;20058;-80
2021/09/07 09:24:15;;;;;;;11.52;7.93;;;;;;;26.11;38.58;102025.34;5005868;28;20133;-79
2021/09/07 09:26:50;;;;;;;12.73;8.05;;;;;;;26.22;38.94;102026.03;5011585;28;20058;-79
2021/09/07 09:29:22;;;;;;;13.18;7.93;;;;;;;26.35;38.95;102026.41;5020603;28;20053;-78
2021/09/07 09:31:50;;;;;;;12.30;8.27;;;;;;;26.41;38.78;102026.56;5012754;28;20083;-79
2021/09/07 09:34:17;;;;;;;11.68;8.15;;;;;;;26.52;38.25;102017.81;5009264;28;20077;-78
2021/09/07 09:36:58;;;;;;;10.88;7.85;;;;;;;26.67;38.17;102025.47;5012298;28;20558;-78
2021/09/07 09:39:36;;;;;;;12.23;8.18;;;;;;;26.76;37.63;102010.44;5024539;28;20108;-78
2021/09/07 09:42:04;;;;;;;12.18;7.72;;;;;;;26.85;38.08;102020.47;5009396;28;20049;-76
2021/09/07 09:44:30;;;;;;;11.23;7.68;;;;;;;26.96;38.13;102014.56;5008862;28;20045;-75
2021/09/07 09:46:57;;;;;;;11.88;8.20;;;;;;;27.07;37.53;102010.50;5007202;28;20472;-76
2021/09/07 09:49:28;;;;;;;10.88;7.75;;;;;;;27.19;37.47;102000.66;5012307;28;20135;-76
2021/09/07 09:52:00;;;;;;;10.35;8.02;;;;;;;27.33;37.02;102004.59;5015251;28;20052;-78
2021/09/07 09:54:29;;;;;;;10.65;7.55;;;;;;;27.41;36.98;101999.84;5007484;28;20397;-75
2021/09/07 09:57:01;;;;;;;12.45;8.07;;;;;;;27.53;36.32;101995.56;5021404;28;20543;-76
2021/09/07 09:59:28;;;;;;;11.43;8.23;;;;;;;27.58;36.87;102001.50;5008134;28;20100;-76
2021/09/07 10:01:57;;;;;;;10.75;7.40;;;;;;;27.73;36.36;101995.97;5009001;28;20106;-77
2021/09/07 10:04:25;;;;;;;11.93;7.22;;;;;;;27.82;36.86;101993.97;5010228;28;20065;-76
2021/09/07 10:06:52;;;;;;;9.13;7.05;;;;;;;27.93;36.62;101990.69;5016843;28;20210;-77
2021/09/07 10:09:29;;;;;;;11.13;8.10;;;;;;;28.08;35.48;101991.63;5009342;28;20050;-76
2021/09/07 10:12:17;;;;;;;9.30;7.35;;;;;;;28.18;36.05;101986.66;5011763;28;20135;-79
2021/09/07 10:15:02;;;;;;;11.98;7.32;;;;;;;28.33;35.30;101981.09;5007325;28;20053;-78
2021/09/07 10:20:47;;;;;;;12.13;7.88;;;;;;;28.59;34.49;101983.38;5007902;28;20555;-80
2021/09/07 10:23:32;;;;;;;9.57;6.90;;;;;;;28.71;34.71;101979.94;5024402;28;20140;-77
2021/09/07 10:26:01;;;;;;;10.38;7.55;;;;;;;28.85;34.38;101974.53;5008784;28;20128;-78
2021/09/07 10:28:41;;;;;;;10.80;7.35;;;;;;;29.01;33.48;101974.31;5014791;28;20100;-77
2021/09/07 10:31:14;;;;;;;8.88;6.88;;;;;;;29.10;32.93;101964.75;5012468;28;20080;-79
2021/09/07 10:33:58;;;;;;;9.98;7.15;;;;;;;29.21;32.96;101968.97;5012677;28;20457;-76
2021/09/07 10:36:27;;;;;;;11.10;7.45;;;;;;;29.31;33.31;101969.50;5009954;28;20519;-77
2021/09/07 10:39:02;;;;;;;10.25;6.75;;;;;;;29.43;33.01;101962.34;5010980;28;20463;-76
2021/09/07 10:41:28;;;;;;;9.00;6.88;;;;;;;29.51;33.49;101959.41;5018192;28;20058;-75
2021/09/07 10:43:56;;;;;;;11.65;7.10;;;;;;;29.63;33.21;101954.16;5012976;28;20204;-76
2021/09/07 10:46:42;;;;;;;11.65;7.50;;;;;;;29.73;32.55;101963.91;5031849;28;20045;-76
2021/09/07 10:49:24;;;;;;;10.88;6.80;;;;;;;29.85;32.44;101962.31;5012169;28;20056;-77
2021/09/07 10:52:08;;;;;;;10.43;7.15;;;;;;;29.94;31.46;101959.41;5010212;28;20445;-77
2021/09/07 10:54:55;;;;;;;9.38;6.70;;;;;;;29.98;30.95;101961.59;5008683;28;20060;-76
2021/09/07 10:57:46;;;;;;;9.32;6.72;;;;;;;30.02;30.84;101964.84;5009284;28;20046;-77
2021/09/07 11:00:16;;;;;;;10.32;6.32;;;;;;;30.01;31.43;101946.31;5025795;28;20121;-76
2021/09/07 11:02:48;;;;;;;9.90;6.47;;;;;;;30.08;30.86;101947.22;5005393;28;20050;-77
2021/09/07 11:05:25;;;;;;;9.15;6.85;;;;;;;30.09;30.11;101948.97;5020222;28;20542;-76
2021/09/07 11:08:04;;;;;;;8.38;6.07;;;;;;;30.09;30.51;101949.81;5013233;28;20049;-77
2021/09/07 11:10:44;;;;;;;8.68;6.03;;;;;;;30.09;30.42;101943.34;5017994;28;20073;-77
2021/09/07 11:13:25;;;;;;;10.55;6.60;;;;;;;30.09;30.28;101940.56;5003836;28;20377;-77
2021/09/07 11:15:54;;;;;;;8.25;6.10;;;;;;;30.09;30.84;101937.75;5013106;28;20054;-77
2021/09/07 11:18:22;;;;;;;9.30;6.75;;;;;;;30.10;30.33;101933.88;5006721;28;20049;-77
2021/09/07 11:20:52;;;;;;;9.80;6.95;;;;;;;30.09;30.08;101938.63;5012989;28;20085;-77
2021/09/07 11:23:19;;;;;;;8.88;6.53;;;;;;;30.08;29.97;101931.28;5022548;28;20089;-77
2021/09/07 11:25:49;;;;;;;9.40;6.20;;;;;;;30.13;29.29;101930.69;5011134;28;20081;-77
2021/09/07 11:28:17;;;;;;;9.05;6.22;;;;;;;30.11;30.06;101924.41;5021117;28;20054;-76